In Rescue
 
Open Full Screen Window  High Contrast Mode
Wind Gusting 16 knots
11
February 24, 2019 12:44 AM EST
Present Weather: Rain
Weather Information
Wind Direction
  140 °
Wind Speed
  11 kt (13 mph)
Wind Gust
  16 kt (18 mph)
Altimeter
29.44 in
Visibility
1/2 SM
Temperature
06° C
43° F
Dewpoint
05° C
41° F
Humidity
93%
1hr Rain Fall
00.00 in.
24hr Rain Fall
00.02 in.
Sky Condition
Overcast @ 200 ft
LIFR

METAR KJYM 240544Z AUTO 14011G16KT 1/2SM RA OVC002 06/05 A2944 RMK AO2 T00600049

FAA Disclaimer: The data displayed is for advisory purposes only and is not to be used for flight planning or operations.